ENHD

Haugesund Airport

Karmøy, Norway
METAR ENHD 222120Z 13012KT 9999 -RA BKN045 09/06 Q1004
Observed Flight Rules
Apr-22 @ 21:20 UTC (35 minutes ago) Visual Flight Rules
Wind Visibility Clouds Conditions
130° at 12 knots 10,000+ meters
  • Broken at 4,500' AGL
  • Light Rain
Temperatures Readings
Current 9°C / 48°F
Dewpoint 6°C / 43°F
Humidity 82%
Altimeter 29.65" Hg
Pressure 1004 hPa
Elevation 24
METAR ENHD 222120Z 13012KT 9999 -RA BKN045 09/06 Q1004
Observed Flight Rules
Apr-22 @ 21:20 UTC
(35 minutes ago)
VFR
Wind Visibility
130° at 12 knots 10,000+ meters
Clouds
  • Broken at 4,500' AGL
Conditions
  • Light Rain
Temperature Dewpoint
9°C / 48°F 6°C / 43°F
Humidity Altimeter Pressure
82% 29.65" Hg 1004 hPa